createdAt,value
2023-11-18T00:00:55.336Z,5.53
2023-11-18T00:05:56.872Z,5.57
2023-11-18T00:10:58.393Z,5.03
2023-11-18T00:15:59.859Z,4.93
2023-11-18T00:21:01.308Z,4.85
2023-11-18T00:26:02.940Z,5.97
2023-11-18T00:31:04.841Z,5.80
2023-11-18T00:36:07.359Z,6.07
2023-11-18T00:41:09.198Z,5.10
2023-11-18T00:46:10.778Z,6.20
2023-11-18T00:51:12.273Z,5.60
2023-11-18T00:56:16.640Z,5.35
2023-11-18T01:01:18.174Z,6.32
2023-11-18T01:06:19.792Z,6.55
2023-11-18T01:11:21.645Z,6.50
2023-11-18T01:16:23.165Z,6.10
2023-11-18T01:21:24.700Z,5.68
2023-11-18T01:26:26.173Z,5.75
2023-11-18T01:31:32.189Z,6.13
2023-11-18T01:36:35.886Z,5.90
2023-11-18T01:41:37.370Z,6.00
2023-11-18T01:46:38.899Z,5.53
2023-11-18T01:51:43.743Z,5.97
2023-11-18T01:56:50.204Z,5.85
2023-11-18T02:01:53.772Z,7.53
2023-11-18T02:06:55.527Z,6.43
2023-11-18T02:12:16.916Z,5.85
2023-11-18T02:17:22.984Z,6.10
2023-11-18T02:22:26.608Z,5.38
2023-11-18T02:27:28.089Z,5.30
2023-11-18T02:32:40.857Z,5.40
2023-11-18T02:37:45.811Z,5.00
2023-11-18T02:42:49.429Z,4.78
2023-11-18T02:47:51.074Z,5.38
2023-11-18T02:52:52.597Z,5.03
2023-11-18T02:57:54.120Z,4.78
2023-11-18T03:02:55.842Z,5.57
2023-11-18T03:07:57.388Z,5.53
2023-11-18T03:12:58.882Z,4.88
2023-11-18T03:18:00.443Z,5.38
2023-11-18T03:23:02.077Z,5.65
2023-11-18T03:28:03.672Z,5.70
2023-11-18T03:33:05.228Z,6.70
2023-11-18T03:38:06.767Z,7.15
2023-11-18T03:43:08.417Z,6.90
2023-11-18T03:48:10.019Z,7.32
2023-11-18T03:53:12.288Z,8.05
2023-11-18T03:58:13.821Z,8.25
2023-11-18T04:03:15.315Z,9.55
2023-11-18T04:08:16.818Z,9.52
2023-11-18T04:13:18.261Z,8.05
2023-11-18T04:18:19.738Z,7.72
2023-11-18T04:23:21.198Z,8.52
2023-11-18T04:28:22.662Z,8.20
2023-11-18T04:33:24.124Z,7.85
2023-11-18T04:38:27.334Z,9.07
2023-11-18T04:43:35.101Z,8.15
2023-11-18T04:48:44.243Z,7.90
2023-11-18T04:53:45.877Z,7.35
2023-11-18T04:58:47.442Z,7.88
2023-11-18T05:03:49.029Z,8.50
2023-11-18T05:08:50.652Z,9.50
2023-11-18T05:13:52.163Z,8.77
2023-11-18T05:18:53.618Z,8.82
2023-11-18T05:23:55.126Z,9.57
2023-11-18T05:28:56.611Z,9.43
2023-11-18T05:33:58.103Z,9.15
2023-11-18T05:38:59.543Z,9.32
2023-11-18T05:44:01.064Z,9.65
2023-11-18T05:49:04.117Z,9.48
2023-11-18T05:54:05.605Z,9.77
2023-11-18T05:59:07.093Z,9.27
2023-11-18T06:04:08.653Z,10.00
2023-11-18T06:09:10.185Z,8.98
2023-11-18T06:14:12.103Z,9.32
2023-11-18T06:19:13.568Z,9.23
2023-11-18T06:24:15.016Z,9.90
2023-11-18T06:29:16.651Z,9.27
2023-11-18T06:34:18.169Z,10.38
2023-11-18T06:39:19.804Z,9.05
2023-11-18T06:44:21.275Z,9.13
2023-11-18T06:49:22.745Z,8.98
2023-11-18T06:54:24.196Z,9.05
2023-11-18T06:59:25.636Z,9.23
2023-11-18T07:04:27.096Z,9.23
2023-11-18T07:09:28.524Z,8.85
2023-11-18T07:14:30.308Z,10.45
2023-11-18T07:19:31.760Z,10.63
2023-11-18T07:24:33.814Z,9.05
2023-11-18T07:29:35.248Z,10.40
2023-11-18T07:34:36.750Z,10.82
2023-11-18T07:39:38.213Z,10.55
2023-11-18T07:44:39.824Z,10.57
2023-11-18T07:49:41.334Z,10.32
2023-11-18T07:54:42.813Z,10.60
2023-11-18T07:59:44.253Z,10.25
2023-11-18T08:04:45.809Z,10.45
2023-11-18T08:09:47.319Z,9.82
2023-11-18T08:14:48.797Z,10.15
2023-11-18T08:19:50.324Z,10.32
2023-11-18T08:24:51.859Z,9.70
2023-11-18T08:29:53.294Z,9.80
2023-11-18T08:34:54.784Z,9.32
2023-11-18T08:39:56.267Z,10.45
2023-11-18T08:44:57.694Z,10.55
2023-11-18T08:49:59.144Z,10.32
2023-11-18T08:55:00.579Z,10.60
2023-11-18T09:00:02.059Z,10.60
2023-11-18T09:05:03.615Z,9.02
2023-11-18T09:10:05.451Z,7.82
2023-11-18T09:15:07.119Z,9.40
2023-11-18T09:20:09.359Z,10.55
2023-11-18T09:25:10.893Z,8.27
2023-11-18T09:30:12.675Z,8.77
2023-11-18T09:35:15.073Z,8.18
2023-11-18T09:40:17.748Z,8.05
2023-11-18T09:45:19.225Z,6.90
2023-11-18T09:50:29.082Z,7.35
2023-11-18T09:55:43.806Z,7.05
2023-11-18T10:00:49.678Z,7.78
2023-11-18T10:05:52.988Z,6.95
2023-11-18T10:10:54.494Z,6.82
2023-11-18T10:15:55.938Z,6.97
2023-11-18T10:20:57.434Z,7.10
2023-11-18T10:25:59.646Z,6.25
2023-11-18T10:31:03.509Z,6.28
2023-11-18T10:36:06.676Z,5.72
2023-11-18T10:41:08.157Z,6.05
2023-11-18T10:46:11.099Z,6.57
2023-11-18T10:51:16.829Z,5.65
2023-11-18T10:56:18.746Z,5.97
2023-11-18T11:01:28.958Z,6.00
2023-11-18T11:06:31.032Z,5.95
2023-11-18T11:11:41.107Z,7.07
2023-11-18T11:16:45.992Z,5.55
2023-11-18T11:21:53.164Z,5.93
2023-11-18T11:27:05.830Z,5.60
2023-11-18T11:32:10.340Z,5.50
2023-11-18T11:37:12.453Z,4.82
2023-11-18T11:42:15.862Z,4.82
2023-11-18T11:47:18.267Z,5.40
2023-11-18T11:52:28.922Z,6.05
2023-11-18T11:57:33.810Z,5.53
2023-11-18T12:07:41.072Z,5.75
2023-11-18T12:12:42.582Z,5.50
2023-11-18T12:17:53.022Z,6.72
2023-11-18T12:23:04.935Z,5.63
2023-11-18T12:28:10.667Z,6.07
2023-11-18T12:33:12.187Z,5.38
2023-11-18T12:39:02.206Z,6.00
2023-11-18T12:44:15.503Z,4.82
2023-11-18T12:49:18.215Z,4.60
2023-11-18T12:54:25.353Z,5.07
2023-11-18T12:59:26.884Z,5.47
2023-11-18T13:04:28.871Z,5.35
2023-11-18T13:09:30.601Z,5.35
2023-11-18T13:14:33.725Z,5.68
2023-11-18T13:19:36.022Z,4.55
2023-11-18T13:24:41.123Z,4.70
2023-11-18T13:29:49.397Z,4.70
2023-11-18T13:34:51.026Z,4.40
2023-11-18T13:39:58.590Z,4.85
2023-11-18T13:45:01.294Z,4.68
2023-11-18T13:50:07.918Z,5.18
2023-11-18T13:55:09.481Z,5.63
2023-11-18T14:00:12.015Z,6.10
2023-11-18T14:05:17.427Z,6.68
2023-11-18T14:10:19.252Z,6.40
2023-11-18T14:15:20.744Z,6.75
2023-11-18T14:20:22.260Z,7.97
2023-11-18T14:25:24.105Z,5.80
2023-11-18T14:30:25.607Z,6.63
2023-11-18T14:35:30.097Z,5.53
2023-11-18T14:40:31.976Z,4.30
2023-11-18T14:45:33.444Z,4.18
2023-11-18T14:50:34.930Z,4.32
2023-11-18T14:55:36.412Z,4.47
2023-11-18T15:00:37.887Z,4.93
2023-11-18T15:05:39.524Z,5.85
2023-11-18T15:10:41.376Z,4.95
2023-11-18T15:15:42.967Z,5.60
2023-11-18T15:20:47.987Z,6.30
2023-11-18T15:25:50.199Z,6.32
2023-11-18T15:30:51.823Z,6.18
2023-11-18T15:35:53.398Z,7.07
2023-11-18T15:40:55.112Z,7.65
2023-11-18T15:45:56.616Z,8.45
2023-11-18T15:51:00.631Z,8.90
2023-11-18T15:56:02.528Z,9.57
2023-11-18T16:01:04.514Z,10.88
2023-11-18T16:06:06.681Z,10.52
2023-11-18T16:11:08.201Z,11.70
2023-11-18T16:16:09.814Z,12.32
2023-11-18T16:21:11.285Z,12.93
2023-11-18T16:26:12.791Z,14.55
2023-11-18T16:31:14.330Z,15.32
2023-11-18T16:36:21.596Z,13.80
2023-11-18T16:41:24.112Z,15.27
2023-11-18T16:46:25.704Z,15.68
2023-11-18T16:51:27.224Z,16.63
2023-11-18T16:56:29.573Z,17.05
2023-11-18T17:01:31.053Z,16.35
2023-11-18T17:06:32.509Z,17.85
2023-11-18T17:11:33.991Z,17.88
2023-11-18T17:16:35.501Z,16.67
2023-11-18T17:21:37.058Z,17.52
2023-11-18T17:26:38.575Z,16.40
2023-11-18T17:31:40.521Z,17.45
2023-11-18T17:36:41.991Z,16.75
2023-11-18T17:41:43.451Z,16.13
2023-11-18T17:46:44.943Z,16.35
2023-11-18T17:51:46.442Z,15.85
2023-11-18T17:56:48.014Z,14.35
2023-11-18T18:01:49.808Z,15.18
2023-11-18T18:06:51.429Z,16.75
2023-11-18T18:11:52.918Z,14.60
2023-11-18T18:16:54.399Z,14.13
2023-11-18T18:21:55.905Z,15.30
2023-11-18T18:26:57.398Z,14.70
2023-11-18T18:31:58.928Z,14.20
2023-11-18T18:37:00.429Z,13.48
2023-11-18T18:42:01.886Z,14.15
2023-11-18T18:47:03.628Z,13.70
2023-11-18T18:52:05.179Z,14.50
2023-11-18T18:57:06.991Z,12.65
2023-11-18T19:02:08.555Z,12.93
2023-11-18T19:07:10.066Z,12.88
2023-11-18T19:12:11.549Z,11.60
2023-11-18T19:17:13.059Z,13.13
2023-11-18T19:22:14.540Z,13.63
2023-11-18T19:27:15.979Z,12.73
2023-11-18T19:32:17.462Z,11.38
2023-11-18T19:37:18.981Z,12.60
2023-11-18T19:42:20.448Z,12.38
2023-11-18T19:47:21.975Z,11.98
2023-11-18T19:52:23.475Z,11.23
2023-11-18T19:57:25.046Z,10.38
2023-11-18T20:02:26.605Z,11.32
2023-11-18T20:07:28.164Z,11.27
2023-11-18T20:12:31.645Z,10.20
2023-11-18T20:17:34.888Z,8.90
2023-11-18T20:22:36.551Z,8.73
2023-11-18T20:27:38.081Z,7.95
2023-11-18T20:32:39.646Z,7.95
2023-11-18T20:37:41.213Z,8.15
2023-11-18T20:42:42.647Z,8.38
2023-11-18T20:47:45.542Z,7.57
2023-11-18T20:52:47.201Z,7.68
2023-11-18T20:57:48.696Z,7.13
2023-11-18T21:02:50.444Z,6.47
2023-11-18T21:07:52.084Z,6.80
2023-11-18T21:12:53.573Z,6.53
2023-11-18T21:17:55.192Z,6.93
2023-11-18T21:22:56.951Z,6.03
2023-11-18T21:28:04.235Z,5.60
2023-11-18T21:33:06.198Z,5.18
2023-11-18T21:38:07.720Z,4.82
2023-11-18T21:43:09.318Z,4.78
2023-11-18T21:48:10.800Z,4.60
2023-11-18T21:53:12.372Z,4.88
2023-11-18T21:58:13.894Z,4.00
2023-11-18T22:03:15.543Z,3.38
2023-11-18T22:08:17.198Z,3.50
2023-11-18T22:13:18.720Z,3.60
2023-11-18T22:18:20.243Z,3.92
2023-11-18T22:23:21.727Z,3.67
2023-11-18T22:28:23.245Z,3.17
2023-11-18T22:33:25.644Z,3.22
2023-11-18T22:38:27.557Z,2.92
2023-11-18T22:43:29.130Z,2.65
2023-11-18T22:48:30.580Z,2.33
2023-11-18T22:53:32.318Z,2.90
2023-11-18T22:58:33.772Z,2.65
2023-11-18T23:03:35.319Z,2.33
2023-11-18T23:08:38.136Z,2.08
2023-11-18T23:13:39.830Z,1.95
2023-11-18T23:18:44.216Z,2.40
2023-11-18T23:23:45.752Z,1.90
2023-11-18T23:28:47.233Z,2.00
2023-11-18T23:33:48.716Z,2.35
2023-11-18T23:38:50.171Z,2.58
2023-11-18T23:43:51.704Z,2.03
2023-11-18T23:48:53.774Z,2.10
2023-11-18T23:53:55.233Z,2.15
2023-11-18T23:58:56.670Z,2.03
